Time;durP1;ratioP1;P1;durP2;ratioP2;P2;SDS_P1;SDS_P2;PMS_P1;PMS_P2;Temp;Humidity;BMP_temperature;BMP_pressure;BME280_temperature;BME280_humidity;BME280_pressure;Samples;Min_cycle;Max_cycle;Signal;HPM_P1;HPM_P2
2022/01/20 00:01:47;;;;;;;1.50;1.13;;;;;;;1.99;50.06;99909.75;5095376;28;20196;-92
2022/01/20 00:04:19;;;;;;;2.13;1.43;;;;;;;1.95;50.52;99908.03;5094486;28;20175;-92
2022/01/20 00:09:29;;;;;;;1.27;1.03;;;;;;;1.91;50.73;99921.00;5096100;28;20808;-91
2022/01/20 00:23:16;;;;;;;7.13;3.10;;;;;;;1.56;51.64;99908.22;5095162;28;20452;-91
2022/01/20 00:28:39;;;;;;;3.03;1.57;;;;;;;1.82;51.27;99901.22;5095626;28;20927;-91
2022/01/20 00:33:42;;;;;;;5.70;3.27;;;;;;;1.80;51.06;99906.41;5094639;28;20855;-91
2022/01/20 00:38:36;;;;;;;3.60;2.07;;;;;;;1.89;51.12;99899.47;5095170;28;20424;-90
2022/01/20 00:41:03;;;;;;;5.10;1.83;;;;;;;1.92;50.99;99896.84;5094319;28;20906;-91
2022/01/20 00:43:29;;;;;;;6.03;2.40;;;;;;;1.86;50.61;99897.75;5093595;28;20444;-91
2022/01/20 00:45:54;;;;;;;2.43;1.80;;;;;;;1.87;50.90;99886.53;5094831;28;20408;-92
2022/01/20 00:48:21;;;;;;;1.70;1.53;;;;;;;1.99;50.98;99886.47;5093558;28;20428;-91
2022/01/20 00:50:47;;;;;;;1.87;1.70;;;;;;;2.05;50.61;99875.22;5094291;28;20179;-91
2022/01/20 00:53:12;;;;;;;1.90;0.97;;;;;;;2.03;51.01;99874.38;5094358;28;20487;-91
2022/01/20 00:55:39;;;;;;;11.43;1.63;;;;;;;1.84;51.11;99869.31;5093878;28;20298;-91
2022/01/20 00:58:05;;;;;;;4.93;2.10;;;;;;;1.89;51.61;99864.13;5093283;28;20200;-91
2022/01/20 01:00:31;;;;;;;1.73;1.03;;;;;;;1.92;51.13;99858.06;5094574;28;20400;-91
2022/01/20 01:02:57;;;;;;;2.47;1.20;;;;;;;1.78;51.67;99859.00;5093116;28;20981;-91
2022/01/20 01:05:22;;;;;;;2.53;1.50;;;;;;;1.59;52.35;99866.88;5094085;28;20646;-90
2022/01/20 01:07:50;;;;;;;3.20;1.50;;;;;;;1.46;52.79;99858.34;5094333;28;20240;-91
2022/01/20 01:10:25;;;;;;;4.60;2.10;;;;;;;1.33;53.66;99858.41;5093946;28;20177;-91
2022/01/20 01:13:27;;;;;;;1.70;1.17;;;;;;;1.42;53.48;99859.19;5093099;28;20462;-90
2022/01/20 01:15:47;;;;;;;3.13;2.10;;;;;;;1.48;53.37;99854.03;5090596;28;20498;-90
2022/01/20 01:23:28;;;;;;;6.53;1.80;;;;;;;1.64;52.99;99845.31;5094045;28;20763;-90
2022/01/20 01:25:56;;;;;;;3.73;1.70;;;;;;;1.79;52.63;99839.19;5093725;28;20538;-91
2022/01/20 01:28:24;;;;;;;1.60;1.33;;;;;;;1.89;52.37;99837.44;5093711;28;20415;-91
2022/01/20 01:33:30;;;;;;;1.53;1.10;;;;;;;1.86;52.10;99821.06;5093618;28;20393;-91
2022/01/20 01:35:58;;;;;;;1.60;1.00;;;;;;;1.94;51.67;99817.56;5093856;28;20420;-91
2022/01/20 01:38:35;;;;;;;5.03;1.20;;;;;;;1.99;51.94;99814.09;5093566;28;20413;-91
2022/01/20 01:41:11;;;;;;;11.40;1.63;;;;;;;1.85;51.66;99828.84;5092582;28;20786;-91
2022/01/20 01:43:40;;;;;;;6.17;1.17;;;;;;;1.81;51.92;99822.81;5092604;28;20413;-91
2022/01/20 01:46:06;;;;;;;1.70;1.17;;;;;;;1.91;51.84;99815.88;5093381;28;20412;-91
2022/01/20 01:48:31;;;;;;;1.77;1.17;;;;;;;1.95;51.86;99808.94;5092096;28;20417;-91
2022/01/20 01:50:59;;;;;;;2.57;1.43;;;;;;;1.93;52.05;99802.94;5093652;28;20199;-91
2022/01/20 01:53:25;;;;;;;1.53;1.07;;;;;;;1.93;51.95;99805.50;5093234;28;20198;-91
2022/01/20 01:55:50;;;;;;;1.43;1.10;;;;;;;1.99;52.15;99802.88;5092384;28;20432;-91
2022/01/20 01:58:16;;;;;;;3.60;1.47;;;;;;;1.73;52.15;99803.09;5093204;28;20182;-91
2022/01/20 02:00:43;;;;;;;2.87;1.47;;;;;;;1.47;52.88;99805.78;5093343;28;20183;-91
2022/01/20 02:03:09;;;;;;;2.67;1.63;;;;;;;1.60;52.71;99804.84;5093785;28;20213;-90
2022/01/20 02:05:42;;;;;;;2.47;1.13;;;;;;;1.81;52.76;99796.97;5093236;28;20417;-91
2022/01/20 02:19:11;;;;;;;4.10;1.00;;;;;;;1.26;53.75;99780.06;5093914;28;20487;-91
2022/01/20 02:22:05;;;;;;;5.20;0.70;;;;;;;1.32;52.90;99771.44;5092987;28;20452;-91
2022/01/20 02:24:30;;;;;;;2.03;1.13;;;;;;;1.43;52.14;99773.13;5092227;28;20794;-91
2022/01/20 02:26:57;;;;;;;8.13;1.23;;;;;;;1.54;51.82;99775.63;5093023;28;20410;-91
2022/01/20 02:29:23;;;;;;;3.13;1.33;;;;;;;1.67;51.44;99766.94;5092121;28;20388;-90
2022/01/20 02:31:55;;;;;;;2.70;0.93;;;;;;;1.54;51.38;99758.41;5092133;28;20953;-90
2022/01/20 02:34:22;;;;;;;1.43;1.23;;;;;;;1.45;52.35;99763.63;5093314;28;20164;-91
2022/01/20 02:36:48;;;;;;;2.53;1.43;;;;;;;1.57;51.70;99766.13;5091985;28;20432;-90
2022/01/20 02:44:56;;;;;;;2.57;1.30;;;;;;;1.30;52.07;99750.81;5093454;28;20472;-90
2022/01/20 02:47:24;;;;;;;1.90;0.77;;;;;;;1.28;52.40;99751.69;5092894;28;20873;-91
2022/01/20 02:49:50;;;;;;;1.83;1.27;;;;;;;1.42;51.82;99745.56;5093071;28;20476;-91
2022/01/20 02:52:16;;;;;;;4.03;1.10;;;;;;;1.20;52.68;99744.84;5092855;28;20964;-91
2022/01/20 02:54:42;;;;;;;4.83;1.30;;;;;;;1.02;53.46;99736.34;5093196;28;20254;-91
2022/01/20 02:57:08;;;;;;;3.07;1.33;;;;;;;0.94;53.91;99741.53;5093179;28;20452;-91
2022/01/20 02:59:34;;;;;;;1.87;1.00;;;;;;;0.82;53.99;99744.16;5092029;28;20464;-91
2022/01/20 03:02:01;;;;;;;2.40;1.87;;;;;;;0.61;54.12;99747.66;5095621;28;20189;-91
2022/01/20 03:04:27;;;;;;;3.13;0.93;;;;;;;0.84;54.17;99739.00;5096678;28;20182;-92
2022/01/20 03:06:53;;;;;;;1.63;1.27;;;;;;;0.88;54.01;99735.53;5096301;28;20412;-92
2022/01/20 03:09:19;;;;;;;2.53;0.97;;;;;;;0.81;54.62;99742.44;5096459;28;20174;-91
2022/01/20 03:11:45;;;;;;;4.20;1.47;;;;;;;0.68;54.61;99738.19;5096245;28;20628;-90
2022/01/20 03:14:11;;;;;;;5.77;1.43;;;;;;;0.71;54.34;99734.75;5096415;28;20411;-91
2022/01/20 03:16:36;;;;;;;1.63;1.30;;;;;;;0.60;54.76;99730.47;5096170;28;20607;-92
2022/01/20 03:19:02;;;;;;;1.53;1.07;;;;;;;0.66;54.47;99728.72;5096079;28;20616;-91
2022/01/20 03:21:28;;;;;;;0.73;0.73;;;;;;;0.63;54.08;99725.28;5095614;28;20658;-91
2022/01/20 03:23:53;;;;;;;1.37;0.67;;;;;;;0.36;55.36;99725.41;5095139;28;20471;-91
2022/01/20 03:26:19;;;;;;;4.23;1.40;;;;;;;0.40;55.25;99721.06;5096581;28;20491;-91
2022/01/20 03:28:44;;;;;;;2.60;0.90;;;;;;;0.46;54.61;99716.78;5094965;28;20169;-91
2022/01/20 03:31:10;;;;;;;1.67;1.57;;;;;;;0.49;55.15;99716.78;5096027;28;20169;-91
2022/01/20 03:33:35;;;;;;;8.07;1.43;;;;;;;0.54;55.11;99712.44;5095890;28;20262;-91
2022/01/20 03:36:01;;;;;;;2.80;1.10;;;;;;;0.50;54.78;99712.44;5095861;28;20185;-90
2022/01/20 03:38:27;;;;;;;1.63;0.90;;;;;;;0.53;55.42;99712.44;5095758;28;20657;-91
2022/01/20 03:40:52;;;;;;;1.50;1.03;;;;;;;0.72;54.98;99705.50;5095571;28;20200;-91
2022/01/20 03:43:21;;;;;;;0.50;0.50;;;;;;;0.78;54.43;99700.31;5095549;28;20616;-91
2022/01/20 03:45:50;;;;;;;1.20;0.63;;;;;;;0.60;54.94;99696.94;5095643;28;20182;-92
2022/01/20 03:48:16;;;;;;;4.80;1.50;;;;;;;0.83;54.45;99691.69;5095872;28;20949;-91
2022/01/20 03:53:35;;;;;;;1.00;0.77;;;;;;;0.54;54.82;99699.56;5096130;28;20262;-92
2022/01/20 03:56:03;;;;;;;3.93;1.30;;;;;;;0.38;56.55;99695.31;5094731;28;20415;-91
2022/01/20 03:58:28;;;;;;;3.10;1.37;;;;;;;0.48;55.63;99690.97;5095351;28;20485;-91
2022/01/20 04:00:54;;;;;;;6.77;1.03;;;;;;;0.46;55.44;99685.81;5095491;28;20410;-90
2022/01/20 04:03:20;;;;;;;0.70;0.67;;;;;;;0.59;55.24;99687.50;5095235;28;20200;-91
2022/01/20 04:06:00;;;;;;;1.97;0.97;;;;;;;0.63;55.36;99678.88;5095371;28;20199;-91
2022/01/20 04:08:30;;;;;;;1.10;1.00;;;;;;;0.55;55.32;99695.25;5095548;28;20157;-91
2022/01/20 04:10:56;;;;;;;1.57;0.70;;;;;;;0.41;55.84;99686.69;5095384;28;20434;-91
2022/01/20 04:13:22;;;;;;;6.87;2.63;;;;;;;0.25;56.88;99688.47;5094034;28;20793;-91
2022/01/20 04:15:49;;;;;;;1.37;0.77;;;;;;;0.41;55.52;99676.38;5095109;28;20173;-91
2022/01/20 04:18:21;;;;;;;1.23;1.07;;;;;;;0.32;55.93;99681.56;5095871;28;20255;-91
2022/01/20 04:20:56;;;;;;;4.03;1.47;;;;;;;0.37;56.21;99684.97;5094291;28;20493;-91
2022/01/20 04:23:32;;;;;;;4.03;1.87;;;;;;;0.54;55.22;99678.91;5094144;28;20537;-92
2022/01/20 04:25:57;;;;;;;9.77;3.97;;;;;;;0.27;55.97;99684.16;5094897;28;20391;-91
2022/01/20 04:28:23;;;;;;;7.63;1.77;;;;;;;0.09;56.78;99684.19;5095336;28;20484;-91
2022/01/20 04:30:48;;;;;;;15.47;1.13;;;;;;;0.39;56.35;99678.94;5093868;28;20249;-91
2022/01/20 04:33:14;;;;;;;0.83;0.80;;;;;;;0.44;55.92;99679.81;5093823;28;20593;-91
2022/01/20 04:35:40;;;;;;;1.73;1.43;;;;;;;0.61;55.66;99682.31;5093871;28;20173;-91
2022/01/20 04:38:06;;;;;;;1.13;0.77;;;;;;;0.54;55.38;99675.47;5093688;28;20188;-90
2022/01/20 04:40:38;;;;;;;5.57;1.33;;;;;;;0.67;54.71;99674.56;5094435;28;20185;-91
2022/01/20 04:43:04;;;;;;;3.87;1.43;;;;;;;0.73;55.06;99668.53;5094590;28;21119;-91
2022/01/20 04:45:34;;;;;;;1.90;1.03;;;;;;;0.59;54.84;99677.19;5093622;28;20577;-91
2022/01/20 04:58:40;;;;;;;2.57;1.07;;;;;;;0.45;54.83;99678.94;5094816;28;20433;-91
2022/01/20 05:01:07;;;;;;;2.73;2.00;;;;;;;0.27;55.93;99676.41;5094425;28;20418;-91
2022/01/20 05:03:33;;;;;;;3.63;1.93;;;;;;;0.37;55.52;99675.53;5093455;28;20265;-91
2022/01/20 05:05:58;;;;;;;2.07;1.63;;;;;;;0.30;56.02;99667.81;5094161;28;20843;-91
2022/01/20 05:08:27;;;;;;;3.30;1.03;;;;;;;0.32;55.75;99668.66;5093504;28;20237;-91
2022/01/20 05:10:53;;;;;;;5.23;2.50;;;;;;;-0.04;57.21;99673.06;5094062;28;20613;-91
2022/01/20 05:13:24;;;;;;;6.20;1.60;;;;;;;-0.05;57.85;99673.91;5094077;28;20463;-91
2022/01/20 05:15:49;;;;;;;3.53;1.80;;;;;;;0.07;57.87;99670.47;5093933;28;20605;-91
2022/01/20 05:18:15;;;;;;;6.67;1.53;;;;;;;0.25;56.74;99669.56;5093396;28;20411;-91
2022/01/20 05:20:41;;;;;;;3.27;1.40;;;;;;;-0.01;57.85;99667.03;5093172;28;20550;-91
2022/01/20 05:23:06;;;;;;;2.43;2.10;;;;;;;0.09;57.45;99663.59;5092515;28;20717;-91
2022/01/20 05:25:32;;;;;;;2.37;1.97;;;;;;;0.05;57.43;99667.03;5093748;28;20172;-90
2022/01/20 05:27:57;;;;;;;1.00;0.93;;;;;;;0.03;57.79;99662.75;5093980;28;20209;-91
2022/01/20 05:30:23;;;;;;;8.87;2.13;;;;;;;0.08;57.37;99666.19;5092873;28;20264;-91
2022/01/20 05:32:48;;;;;;;8.20;3.53;;;;;;;0.20;57.28;99672.16;5093905;28;20606;-91
2022/01/20 05:35:16;;;;;;;5.20;3.40;;;;;;;0.30;57.04;99671.25;5093132;28;20168;-91
2022/01/20 05:37:42;;;;;;;4.57;3.10;;;;;;;0.49;56.80;99659.16;5092832;28;20176;-91
2022/01/20 05:40:08;;;;;;;7.47;3.07;;;;;;;0.40;56.21;99666.91;5093433;28;20438;-91
2022/01/20 05:42:36;;;;;;;5.53;2.63;;;;;;;0.10;57.41;99660.16;5092939;28;20201;-91
2022/01/20 05:45:07;;;;;;;9.77;2.37;;;;;;;0.18;57.65;99655.84;5093657;28;20468;-92
2022/01/20 05:47:37;;;;;;;4.93;2.43;;;;;;;0.20;57.11;99658.41;5092738;28;20494;-91
2022/01/20 05:50:03;;;;;;;4.43;3.23;;;;;;;0.24;57.40;99660.97;5093602;28;20410;-91
2022/01/20 05:52:29;;;;;;;11.27;3.53;;;;;;;0.40;57.40;99670.38;5092636;28;20454;-91
2022/01/20 05:54:55;;;;;;;5.57;3.70;;;;;;;0.54;56.64;99666.03;5093698;28;20470;-92
2022/01/20 05:57:20;;;;;;;4.93;2.83;;;;;;;0.63;56.06;99655.66;5092599;28;20177;-92
2022/01/20 05:59:48;;;;;;;7.07;4.17;;;;;;;0.63;55.71;99651.38;5093392;28;20178;-91
2022/01/20 06:02:28;;;;;;;9.13;4.60;;;;;;;0.42;56.29;99666.06;5092842;28;20302;-91
2022/01/20 06:04:54;;;;;;;14.03;3.60;;;;;;;0.56;56.26;99658.25;5093684;28;20407;-91
2022/01/20 06:07:21;;;;;;;9.17;4.33;;;;;;;0.60;56.20;99652.25;5092562;28;20429;-91
2022/01/20 06:09:47;;;;;;;3.63;2.73;;;;;;;0.63;55.96;99663.38;5092595;28;20176;-91
2022/01/20 06:12:13;;;;;;;7.20;3.90;;;;;;;0.61;56.21;99659.09;5092559;28;20483;-91
2022/01/20 06:14:41;;;;;;;13.87;4.97;;;;;;;0.60;56.70;99658.25;5093700;28;20504;-93
2022/01/20 06:17:06;;;;;;;34.73;11.33;;;;;;;0.58;56.41;99649.66;5093370;28;20181;-92
2022/01/20 06:19:32;;;;;;;24.60;9.33;;;;;;;0.60;56.36;99647.91;5093363;28;20430;-92
2022/01/20 06:21:57;;;;;;;29.30;7.13;;;;;;;0.69;56.38;99651.31;5093151;28;20204;-92
2022/01/20 06:24:23;;;;;;;18.83;6.30;;;;;;;0.71;56.45;99655.59;5092707;28;20185;-91
2022/01/20 06:26:48;;;;;;;8.67;4.07;;;;;;;0.82;55.84;99652.97;5093430;28;20627;-91
2022/01/20 06:29:14;;;;;;;9.30;5.43;;;;;;;0.97;56.22;99648.59;5092559;28;20200;-91
2022/01/20 06:31:39;;;;;;;11.73;4.63;;;;;;;1.48;56.78;99637.03;5093105;28;20252;-91
2022/01/20 06:34:05;;;;;;;11.03;3.77;;;;;;;2.24;55.11;99636.28;5092038;28;20177;-91
2022/01/20 06:36:30;;;;;;;19.80;6.23;;;;;;;2.74;53.48;99633.94;5097133;28;20170;-90
2022/01/20 06:38:56;;;;;;;12.07;5.13;;;;;;;2.94;52.39;99631.94;5097215;28;20262;-91
2022/01/20 06:41:21;;;;;;;13.10;5.70;;;;;;;3.12;51.83;99633.41;5095886;28;20231;-90
2022/01/20 06:43:47;;;;;;;12.27;6.00;;;;;;;3.47;51.49;99638.03;5096915;28;20192;-91
2022/01/20 06:46:12;;;;;;;16.43;8.03;;;;;;;3.74;50.14;99629.81;5096790;28;20273;-91
2022/01/20 06:48:38;;;;;;;14.53;7.67;;;;;;;3.85;48.89;99640.00;5096918;28;20214;-92
2022/01/20 06:51:03;;;;;;;13.53;6.80;;;;;;;3.83;48.16;99639.16;5096924;28;20180;-92
2022/01/20 06:53:29;;;;;;;17.83;8.07;;;;;;;3.93;48.47;99648.50;5096682;28;20660;-91
2022/01/20 06:55:54;;;;;;;14.90;6.53;;;;;;;3.97;48.10;99651.00;5096893;28;20184;-90
2022/01/20 06:58:22;;;;;;;15.00;7.23;;;;;;;4.01;47.94;99646.63;5095581;28;20547;-90
2022/01/20 07:00:48;;;;;;;15.37;7.70;;;;;;;4.00;47.25;99656.16;5095442;28;20184;-91
2022/01/20 07:03:13;;;;;;;14.00;6.30;;;;;;;4.02;47.77;99659.56;5096849;28;20200;-90
2022/01/20 07:05:39;;;;;;;11.80;4.43;;;;;;;4.10;47.08;99659.41;5096374;28;20274;-90
2022/01/20 07:08:04;;;;;;;22.50;6.73;;;;;;;4.23;47.03;99659.16;5097206;28;20228;-91
2022/01/20 07:10:30;;;;;;;33.47;15.50;;;;;;;4.59;47.12;99648.94;5095390;28;20267;-91
2022/01/20 07:12:55;;;;;;;16.70;8.97;;;;;;;4.95;46.71;99643.00;5096620;28;20168;-91
2022/01/20 07:15:21;;;;;;;30.40;11.20;;;;;;;5.29;46.63;99653.47;5095356;28;20176;-91
2022/01/20 07:17:46;;;;;;;18.13;10.07;;;;;;;5.46;45.93;99652.19;5096158;28;20612;-90
2022/01/20 07:20:13;;;;;;;14.07;7.80;;;;;;;5.63;46.46;99650.94;5096133;28;20191;-91
2022/01/20 07:22:39;;;;;;;17.97;7.60;;;;;;;5.82;45.89;99652.16;5095900;28;20200;-91
2022/01/20 07:25:04;;;;;;;18.83;6.03;;;;;;;5.99;45.44;99644.84;5095987;28;20203;-90
2022/01/20 07:27:30;;;;;;;14.67;5.50;;;;;;;5.89;45.12;99643.38;5096445;28;20172;-89
2022/01/20 07:29:56;;;;;;;7.83;3.83;;;;;;;5.82;44.99;99632.22;5095857;28;20241;-90
2022/01/20 07:32:21;;;;;;;26.63;8.47;;;;;;;5.85;45.81;99634.78;5094829;28;20245;-91
2022/01/20 07:34:47;;;;;;;21.90;4.70;;;;;;;5.83;45.40;99625.28;5096034;28;20187;-89
2022/01/20 07:37:12;;;;;;;4.07;2.30;;;;;;;5.90;43.49;99624.25;5095819;28;20177;-90
2022/01/20 07:39:37;;;;;;;4.40;1.50;;;;;;;5.94;43.06;99621.53;5095572;28;20180;-90
2022/01/20 07:42:04;;;;;;;3.70;1.60;;;;;;;5.84;41.55;99619.19;5095871;28;20189;-90
2022/01/20 07:44:29;;;;;;;7.13;1.50;;;;;;;5.69;42.40;99622.16;5095543;28;20187;-90
2022/01/20 07:46:54;;;;;;;3.93;1.97;;;;;;;5.43;42.08;99615.00;5095341;28;20173;-89
2022/01/20 07:49:20;;;;;;;8.67;2.57;;;;;;;5.37;42.33;99612.56;5096013;28;20180;-90
2022/01/20 07:51:45;;;;;;;6.27;1.40;;;;;;;5.36;42.62;99616.91;5094496;28;20234;-90
2022/01/20 07:54:11;;;;;;;3.00;1.63;;;;;;;5.35;43.09;99610.00;5095406;28;20200;-90
2022/01/20 07:56:36;;;;;;;4.00;1.83;;;;;;;5.48;43.06;99614.00;5095326;28;20183;-90
2022/01/20 07:59:03;;;;;;;12.90;3.03;;;;;;;5.58;43.42;99618.09;5095331;28;20184;-91
2022/01/20 08:01:29;;;;;;;8.20;2.77;;;;;;;5.63;42.24;99619.72;5094302;28;20342;-91
2022/01/20 08:03:54;;;;;;;4.47;1.50;;;;;;;5.61;41.59;99619.75;5094293;28;20638;-91
2022/01/20 08:06:22;;;;;;;4.10;2.50;;;;;;;5.74;42.16;99622.91;5095176;28;20706;-91
2022/01/20 08:08:50;;;;;;;9.47;2.67;;;;;;;5.85;43.60;99620.91;5095619;28;20333;-90
2022/01/20 08:11:16;;;;;;;13.73;6.20;;;;;;;5.96;45.08;99626.69;5095047;28;20180;-90
2022/01/20 08:13:42;;;;;;;12.30;5.37;;;;;;;5.69;44.35;99624.75;5094018;28;20245;-90
2022/01/20 08:16:07;;;;;;;9.20;5.10;;;;;;;5.76;44.69;99611.59;5094032;28;20551;-91
2022/01/20 08:18:32;;;;;;;8.30;3.67;;;;;;;5.98;45.38;99617.09;5094033;28;20196;-90
2022/01/20 08:20:58;;;;;;;14.33;4.37;;;;;;;6.21;43.73;99600.88;5093894;28;20181;-90
2022/01/20 08:23:23;;;;;;;8.73;3.37;;;;;;;6.42;44.21;99608.91;5094726;28;20703;-90
2022/01/20 08:25:49;;;;;;;7.60;3.83;;;;;;;6.63;43.41;99607.47;5093881;28;20192;-90
2022/01/20 08:28:17;;;;;;;10.00;4.40;;;;;;;6.76;43.99;99609.66;5094706;28;20173;-90
2022/01/20 08:30:42;;;;;;;8.47;3.07;;;;;;;6.94;44.12;99612.63;5095273;28;20571;-90
2022/01/20 08:33:08;;;;;;;6.73;2.73;;;;;;;7.05;43.66;99607.94;5094615;28;20188;-89
2022/01/20 08:35:33;;;;;;;5.50;2.77;;;;;;;7.18;40.67;99610.09;5094866;28;20641;-90
2022/01/20 08:38:00;;;;;;;4.07;1.87;;;;;;;7.28;41.03;99598.50;5093693;28;20215;-89
2022/01/20 08:40:26;;;;;;;6.53;2.73;;;;;;;7.42;41.73;99601.50;5094762;28;20191;-90
2022/01/20 08:42:54;;;;;;;4.77;2.23;;;;;;;7.47;40.91;99603.97;5094416;28;20192;-91
2022/01/20 08:45:22;;;;;;;7.67;2.13;;;;;;;7.48;41.10;99605.66;5094983;28;20180;-91
2022/01/20 08:47:52;;;;;;;4.20;2.33;;;;;;;7.56;39.73;99602.81;5093364;28;20241;-90
2022/01/20 08:50:18;;;;;;;4.07;2.07;;;;;;;7.71;39.32;99612.72;5094310;28;20587;-90
2022/01/20 08:52:44;;;;;;;6.57;1.70;;;;;;;7.87;40.26;99603.47;5094278;28;20183;-90
2022/01/20 08:55:09;;;;;;;3.80;2.10;;;;;;;8.03;40.13;99591.63;5094226;28;20171;-90
2022/01/20 08:57:35;;;;;;;5.33;2.87;;;;;;;8.02;39.48;99595.97;5094105;28;20176;-90
2022/01/20 09:00:01;;;;;;;6.90;2.53;;;;;;;7.73;38.88;99595.28;5093865;28;20187;-91
2022/01/20 09:02:26;;;;;;;6.00;2.77;;;;;;;7.67;39.39;99596.34;5093097;28;20200;-90
2022/01/20 09:04:52;;;;;;;10.13;2.50;;;;;;;7.74;40.87;99596.97;5094196;28;20187;-91
2022/01/20 09:07:18;;;;;;;11.47;3.23;;;;;;;8.10;39.41;99589.66;5094034;28;20179;-91
2022/01/20 09:09:46;;;;;;;6.27;2.67;;;;;;;8.20;39.10;99591.84;5094251;28;20223;-91
2022/01/20 09:17:25;;;;;;;9.03;3.27;;;;;;;8.62;37.92;99592.94;5094192;28;20175;-90
2022/01/20 09:19:51;;;;;;;5.97;3.20;;;;;;;8.92;38.82;99601.38;5094138;28;20176;-91
2022/01/20 09:22:17;;;;;;;9.20;2.67;;;;;;;8.89;37.79;99598.88;5093669;28;20754;-90
2022/01/20 09:24:44;;;;;;;8.37;3.17;;;;;;;8.84;38.59;99590.38;5093804;28;20179;-90
2022/01/20 09:27:10;;;;;;;5.27;3.07;;;;;;;9.03;38.21;99588.75;5094028;28;20184;-91
2022/01/20 09:29:36;;;;;;;5.10;2.70;;;;;;;9.31;37.75;99567.56;5094050;28;20190;-91
2022/01/20 09:32:04;;;;;;;7.40;2.63;;;;;;;9.28;37.11;99560.72;5093684;28;20169;-91
2022/01/20 09:34:29;;;;;;;7.70;3.30;;;;;;;9.16;37.02;99555.13;5092766;28;20285;-91
2022/01/20 09:36:55;;;;;;;11.10;4.33;;;;;;;9.43;37.72;99548.78;5093903;28;20229;-92
2022/01/20 09:39:20;;;;;;;5.90;3.40;;;;;;;9.65;37.30;99538.25;5093603;28;20263;-91
2022/01/20 09:41:46;;;;;;;7.33;3.37;;;;;;;9.66;37.72;99539.97;5094567;28;20257;-92
2022/01/20 09:44:12;;;;;;;13.00;3.70;;;;;;;9.91;38.35;99535.38;5092761;28;20182;-89
2022/01/20 09:46:38;;;;;;;5.17;2.53;;;;;;;10.06;37.40;99528.63;5092872;28;20189;-93
2022/01/20 09:49:03;;;;;;;11.93;3.80;;;;;;;10.31;36.37;99524.00;5093534;28;20181;-92
2022/01/20 09:51:29;;;;;;;11.37;4.27;;;;;;;10.29;35.96;99516.22;5093592;28;20177;-91
2022/01/20 09:53:55;;;;;;;12.20;4.83;;;;;;;10.44;35.95;99510.28;5092692;28;20216;-92
2022/01/20 09:56:21;;;;;;;10.17;4.00;;;;;;;10.75;35.37;99496.59;5094148;28;20244;-92
2022/01/20 09:58:46;;;;;;;17.97;4.73;;;;;;;10.82;34.46;99499.78;5093592;28;20565;-93
2022/01/20 10:01:12;;;;;;;7.67;3.67;;;;;;;10.75;34.00;99488.72;5093443;28;20184;-91
2022/01/20 10:03:38;;;;;;;9.73;3.93;;;;;;;10.32;34.13;99489.91;5093449;28;20707;-92
2022/01/20 10:06:05;;;;;;;11.03;3.33;;;;;;;10.55;35.63;99475.72;5093563;28;20187;-93
2022/01/20 10:08:35;;;;;;;7.83;2.57;;;;;;;10.90;35.11;99477.47;5092779;28;20229;-94
2022/01/20 10:11:09;;;;;;;4.50;2.20;;;;;;;11.26;34.52;99469.59;5096908;28;20176;-93
2022/01/20 10:13:41;;;;;;;10.83;3.40;;;;;;;11.42;34.05;99459.19;5096924;28;20179;-92
2022/01/20 10:16:12;;;;;;;4.73;2.37;;;;;;;11.64;33.51;99457.13;5097591;28;20259;-92
2022/01/20 10:18:49;;;;;;;8.83;2.83;;;;;;;11.68;33.71;99458.69;5098128;28;20172;-92
2022/01/20 10:21:15;;;;;;;7.70;2.63;;;;;;;12.07;34.03;99443.50;5098183;28;20172;-94
2022/01/20 10:23:47;;;;;;;9.53;2.60;;;;;;;12.17;33.43;99444.69;5097044;28;20187;-94
2022/01/20 10:26:19;;;;;;;8.67;3.53;;;;;;;12.27;33.10;99434.50;5097859;28;20182;-95
2022/01/20 10:28:50;;;;;;;9.37;3.13;;;;;;;12.48;32.66;99427.22;5097911;28;20684;-96
2022/01/20 10:31:19;;;;;;;7.97;3.40;;;;;;;12.73;32.89;99427.56;5098109;28;20598;-95
2022/01/20 10:33:46;;;;;;;6.27;3.10;;;;;;;12.86;31.94;99412.78;5097571;28;20182;-95
2022/01/20 10:36:13;;;;;;;8.80;2.80;;;;;;;12.85;31.57;99413.69;5097536;28;20233;-94
2022/01/20 10:38:52;;;;;;;7.57;2.77;;;;;;;12.79;30.65;99412.25;5097414;28;20169;-95
2022/01/20 10:41:28;;;;;;;8.37;3.50;;;;;;;12.90;32.18;99401.13;5097817;28;20192;-94
2022/01/20 10:44:07;;;;;;;8.03;3.30;;;;;;;13.26;32.72;99393.72;5096388;28;20273;-94
2022/01/20 10:47:04;;;;;;;10.20;3.23;;;;;;;13.41;31.85;99390.22;5097750;28;20239;-94
2022/01/20 10:49:31;;;;;;;7.77;3.43;;;;;;;13.42;30.97;99381.34;5088744;28;20283;-95
2022/01/20 10:52:07;;;;;;;7.53;3.50;;;;;;;13.62;31.78;99382.78;5097327;28;20655;-95
2022/01/20 10:54:53;;;;;;;7.47;2.90;;;;;;;13.84;31.28;99383.16;5097245;28;20179;-94
2022/01/20 10:57:26;;;;;;;11.97;3.80;;;;;;;13.97;31.06;99373.53;5097649;28;20171;-95
2022/01/20 11:00:03;;;;;;;7.13;3.13;;;;;;;14.15;30.23;99364.47;5097018;28;20580;-93
2022/01/20 11:02:29;;;;;;;9.27;2.70;;;;;;;14.16;31.63;99357.41;5097245;28;20190;-93
2022/01/20 11:04:59;;;;;;;7.37;2.57;;;;;;;14.41;30.57;99351.47;5095873;28;20257;-93
2022/01/20 11:07:25;;;;;;;9.37;3.43;;;;;;;14.66;31.31;99346.28;5096167;28;20188;-95
2022/01/20 11:09:59;;;;;;;6.67;3.40;;;;;;;14.62;30.12;99344.78;5096699;28;20237;-94
2022/01/20 11:12:24;;;;;;;5.37;2.27;;;;;;;14.71;30.31;99339.75;5096940;28;20163;-94
2022/01/20 11:14:51;;;;;;;7.40;2.80;;;;;;;14.94;29.76;99330.28;5096334;28;20194;-95
2022/01/20 11:17:19;;;;;;;5.63;2.43;;;;;;;14.86;29.49;99323.84;5096623;28;20629;-94
2022/01/20 11:19:46;;;;;;;3.60;1.80;;;;;;;14.89;29.25;99321.84;5095908;28;20183;-92
2022/01/20 11:22:13;;;;;;;2.53;1.63;;;;;;;14.77;28.86;99322.66;5095335;28;20189;-93
2022/01/20 11:24:41;;;;;;;5.30;1.67;;;;;;;14.96;29.65;99311.72;5096809;28;20177;-95
2022/01/20 11:27:10;;;;;;;5.27;2.53;;;;;;;14.87;28.84;99310.53;5095710;28;20192;-93
2022/01/20 11:29:47;;;;;;;7.87;3.27;;;;;;;14.93;28.56;99302.22;5095724;28;20181;-94
2022/01/20 11:32:18;;;;;;;3.73;1.57;;;;;;;14.99;28.27;99290.41;5096162;28;20259;-94
2022/01/20 11:35:07;;;;;;;3.60;1.33;;;;;;;15.33;28.12;99280.03;5095580;28;20688;-95
2022/01/20 11:37:37;;;;;;;9.47;1.53;;;;;;;15.47;27.95;99283.53;5095478;28;20176;-93
2022/01/20 11:40:20;;;;;;;3.63;1.37;;;;;;;15.72;28.30;99275.59;5095338;28;20609;-93
2022/01/20 11:43:06;;;;;;;2.60;1.07;;;;;;;15.93;27.42;99261.66;5096216;28;20181;-94
2022/01/20 11:45:35;;;;;;;2.50;1.03;;;;;;;16.12;27.13;99263.81;5095665;28;20177;-93
2022/01/20 11:48:12;;;;;;;1.53;0.77;;;;;;;16.05;26.82;99245.88;5096473;28;20180;-94
2022/01/20 11:50:38;;;;;;;2.37;0.67;;;;;;;16.08;26.00;99256.22;5095770;28;20246;-93
2022/01/20 11:53:18;;;;;;;4.13;1.10;;;;;;;15.94;26.16;99244.00;5095841;28;20182;-94
2022/01/20 11:55:50;;;;;;;2.80;0.80;;;;;;;16.09;26.18;99256.09;5094937;28;20265;-94
2022/01/20 11:58:19;;;;;;;1.60;0.80;;;;;;;16.30;26.15;99246.59;5095436;28;20179;-93
2022/01/20 12:01:06;;;;;;;3.87;1.30;;;;;;;16.25;26.08;99248.72;5094750;28;20179;-94
2022/01/20 12:03:34;;;;;;;4.23;1.20;;;;;;;16.30;26.32;99235.19;5095305;28;20278;-93
2022/01/20 12:06:09;;;;;;;3.77;1.63;;;;;;;16.27;26.29;99236.22;5095141;28;20191;-93
2022/01/20 12:08:35;;;;;;;4.03;1.50;;;;;;;16.56;25.49;99232.28;5095806;28;20547;-92
2022/01/20 12:11:08;;;;;;;5.97;1.00;;;;;;;16.47;25.81;99227.66;5095691;28;20205;-93
2022/01/20 12:13:53;;;;;;;4.50;1.50;;;;;;;16.46;25.41;99230.41;5095288;28;20580;-94
2022/01/20 12:16:27;;;;;;;4.00;1.37;;;;;;;16.54;25.04;99236.84;5095592;28;20287;-92
2022/01/20 12:18:55;;;;;;;7.70;1.37;;;;;;;16.46;24.84;99233.91;5095380;28;20260;-93
2022/01/20 12:21:22;;;;;;;3.97;1.37;;;;;;;16.38;24.83;99233.63;5094980;28;20264;-92
2022/01/20 12:23:48;;;;;;;4.97;1.30;;;;;;;16.58;24.40;99225.09;5095176;28;20226;-94
2022/01/20 12:26:14;;;;;;;3.43;1.10;;;;;;;16.72;24.59;99234.63;5094267;28;20624;-95
2022/01/20 12:28:40;;;;;;;5.10;1.10;;;;;;;16.59;24.83;99236.50;5094628;28;20186;-93
2022/01/20 12:31:12;;;;;;;1.23;0.70;;;;;;;16.47;24.36;99240.91;5094089;28;20179;-92
2022/01/20 12:33:43;;;;;;;1.40;0.60;;;;;;;16.68;25.01;99246.41;5094480;28;20168;-95
2022/01/20 12:36:16;;;;;;;5.40;2.50;;;;;;;16.71;27.96;99245.34;5095375;28;20161;-93
2022/01/20 12:38:46;;;;;;;8.67;2.73;;;;;;;16.70;27.85;99248.91;5094818;28;20182;-93
2022/01/20 12:41:16;;;;;;;5.23;2.47;;;;;;;16.61;28.02;99242.53;5093925;28;20205;-94
2022/01/20 12:43:43;;;;;;;5.80;2.77;;;;;;;16.19;28.92;99248.34;5094701;28;20184;-94
2022/01/20 12:46:12;;;;;;;7.07;2.73;;;;;;;15.95;29.72;99243.06;5094810;28;20172;-94
2022/01/20 12:48:39;;;;;;;6.43;2.97;;;;;;;15.50;30.19;99243.69;5094490;28;20178;-93